createdAt,value
2022-10-13T00:01:50.587Z,14.13
2022-10-13T00:04:17.257Z,17.55
2022-10-13T00:06:43.841Z,12.32
2022-10-13T00:09:10.541Z,11.80
2022-10-13T00:11:37.488Z,12.52
2022-10-13T00:14:05.143Z,11.38
2022-10-13T00:16:32.888Z,11.57
2022-10-13T00:18:59.891Z,13.95
2022-10-13T00:21:27.759Z,13.23
2022-10-13T00:23:55.241Z,10.73
2022-10-13T00:26:23.857Z,11.45
2022-10-13T00:28:52.919Z,13.13
2022-10-13T00:31:26.132Z,9.63
2022-10-13T00:33:53.384Z,10.70
2022-10-13T00:36:21.171Z,11.02
2022-10-13T00:38:47.896Z,11.82
2022-10-13T00:41:15.121Z,11.50
2022-10-13T00:43:52.465Z,13.30
2022-10-13T00:46:19.550Z,12.52
2022-10-13T00:48:47.658Z,14.48
2022-10-13T00:51:17.813Z,12.23
2022-10-13T00:53:46.728Z,10.90
2022-10-13T00:56:15.251Z,11.52
2022-10-13T00:58:43.556Z,14.30
2022-10-13T01:01:10.369Z,13.20
2022-10-13T01:03:37.806Z,18.65
2022-10-13T01:06:05.779Z,17.38
2022-10-13T01:08:33.326Z,15.82
2022-10-13T01:11:17.433Z,14.23
2022-10-13T01:13:46.902Z,13.25
2022-10-13T01:16:19.949Z,17.45
2022-10-13T01:18:58.247Z,12.43
2022-10-13T01:21:51.826Z,15.57
2022-10-13T01:24:42.797Z,14.00
2022-10-13T01:27:47.073Z,13.35
2022-10-13T01:30:20.690Z,13.23
2022-10-13T01:33:17.660Z,17.38
2022-10-13T01:36:06.873Z,16.13
2022-10-13T01:38:43.732Z,21.52
2022-10-13T01:41:33.282Z,23.58
2022-10-13T01:44:23.073Z,20.67
2022-10-13T01:46:51.753Z,16.17
2022-10-13T01:49:21.888Z,14.02
2022-10-13T01:51:50.083Z,17.70
2022-10-13T01:54:16.677Z,19.73
2022-10-13T01:56:52.292Z,16.08
2022-10-13T01:59:19.525Z,17.35
2022-10-13T02:01:56.051Z,18.13
2022-10-13T02:04:54.095Z,17.75
2022-10-13T02:07:28.095Z,18.88
2022-10-13T02:10:09.561Z,16.90
2022-10-13T02:12:55.095Z,16.45
2022-10-13T02:15:27.847Z,20.10
2022-10-13T02:17:55.378Z,13.45
2022-10-13T02:20:22.701Z,16.95
2022-10-13T02:22:55.980Z,16.42
2022-10-13T02:25:23.122Z,19.58
2022-10-13T02:27:50.286Z,24.88
2022-10-13T02:30:24.106Z,32.85
2022-10-13T02:32:50.945Z,28.42
2022-10-13T02:35:17.845Z,24.83
2022-10-13T02:37:44.505Z,27.25
2022-10-13T02:40:11.870Z,22.25
2022-10-13T02:42:38.629Z,18.13
2022-10-13T02:45:05.858Z,19.77
2022-10-13T02:47:32.505Z,18.52
2022-10-13T02:49:59.105Z,21.88
2022-10-13T02:52:25.835Z,17.50
2022-10-13T02:54:52.438Z,19.95
2022-10-13T02:57:19.192Z,20.60
2022-10-13T02:59:45.946Z,17.77
2022-10-13T03:02:12.689Z,19.45
2022-10-13T03:04:40.181Z,20.45
2022-10-13T03:07:07.231Z,15.57
2022-10-13T03:09:33.956Z,20.33
2022-10-13T03:12:00.665Z,17.33
2022-10-13T03:14:27.436Z,25.73
2022-10-13T03:16:54.073Z,17.52
2022-10-13T03:19:20.812Z,17.45
2022-10-13T03:21:47.453Z,17.13
2022-10-13T03:24:14.122Z,20.85
2022-10-13T03:26:40.752Z,19.85
2022-10-13T03:29:07.476Z,18.98
2022-10-13T03:31:34.137Z,18.83
2022-10-13T03:34:00.727Z,17.23
2022-10-13T03:36:27.367Z,17.02
2022-10-13T03:38:54.019Z,18.33
2022-10-13T03:41:21.144Z,17.65
2022-10-13T03:43:47.776Z,15.77
2022-10-13T03:46:16.785Z,21.38
2022-10-13T03:48:43.732Z,15.43
2022-10-13T03:51:14.133Z,17.30
2022-10-13T03:53:40.739Z,19.08
2022-10-13T03:56:07.990Z,22.30
2022-10-13T03:58:35.176Z,19.20
2022-10-13T04:01:05.594Z,17.13
2022-10-13T04:03:33.683Z,25.33
2022-10-13T04:06:02.696Z,22.10
2022-10-13T04:08:30.245Z,19.23
2022-10-13T04:11:05.486Z,18.92
2022-10-13T04:13:32.947Z,17.65
2022-10-13T04:16:29.872Z,19.13
2022-10-13T04:18:59.742Z,22.77
2022-10-13T04:21:27.540Z,19.55
2022-10-13T04:23:58.780Z,17.45
2022-10-13T04:26:28.181Z,24.52
2022-10-13T04:28:56.666Z,22.33
2022-10-13T04:31:24.573Z,18.88
2022-10-13T04:33:51.733Z,19.90
2022-10-13T04:36:18.910Z,23.80
2022-10-13T04:38:45.973Z,20.20
2022-10-13T04:41:14.016Z,22.48
2022-10-13T04:43:41.073Z,18.38
2022-10-13T04:46:14.582Z,25.17
2022-10-13T04:48:41.717Z,25.40
2022-10-13T04:51:11.664Z,21.95
2022-10-13T04:53:39.076Z,21.90
2022-10-13T04:56:11.479Z,21.15
2022-10-13T04:58:39.061Z,20.92
2022-10-13T05:01:07.877Z,22.83
2022-10-13T05:03:35.453Z,20.25
2022-10-13T05:06:02.099Z,26.08
2022-10-13T05:08:28.824Z,24.15
2022-10-13T05:10:57.392Z,20.90
2022-10-13T05:13:25.152Z,23.95
2022-10-13T05:15:52.243Z,24.02
2022-10-13T05:18:19.093Z,19.48
2022-10-13T05:20:46.781Z,26.15
2022-10-13T05:23:14.701Z,20.60
2022-10-13T05:25:41.518Z,19.02
2022-10-13T05:28:08.712Z,27.45
2022-10-13T05:30:35.622Z,26.02
2022-10-13T05:33:02.394Z,18.70
2022-10-13T05:35:29.042Z,21.08
2022-10-13T05:37:55.745Z,26.83
2022-10-13T05:40:22.473Z,22.05
2022-10-13T05:42:53.427Z,27.40
2022-10-13T05:45:22.189Z,26.35
2022-10-13T05:47:48.824Z,28.88
2022-10-13T05:50:15.504Z,26.05
2022-10-13T05:52:43.051Z,19.67
2022-10-13T05:55:13.457Z,28.33
2022-10-13T05:57:49.414Z,28.27
2022-10-13T06:00:18.549Z,21.65
2022-10-13T06:02:51.879Z,24.92
2022-10-13T06:05:21.356Z,32.78
2022-10-13T06:07:48.259Z,22.25
2022-10-13T06:10:15.685Z,26.13
2022-10-13T06:12:42.313Z,21.83
2022-10-13T06:15:09.441Z,27.05
2022-10-13T06:17:38.182Z,23.42
2022-10-13T06:20:06.276Z,26.33
2022-10-13T06:22:38.350Z,20.23
2022-10-13T06:25:06.974Z,28.50
2022-10-13T06:27:34.015Z,22.00
2022-10-13T06:30:00.738Z,27.55
2022-10-13T06:32:27.395Z,32.80
2022-10-13T06:34:54.788Z,24.17
2022-10-13T06:37:26.969Z,24.52
2022-10-13T06:39:54.160Z,24.40
2022-10-13T06:42:21.336Z,25.60
2022-10-13T06:44:48.388Z,19.73
2022-10-13T06:47:15.019Z,25.45
2022-10-13T06:49:41.655Z,22.05
2022-10-13T06:52:09.404Z,18.15
2022-10-13T06:54:36.037Z,21.75
2022-10-13T06:57:06.387Z,23.05
2022-10-13T06:59:33.132Z,21.73
2022-10-13T07:01:59.743Z,17.98
2022-10-13T07:04:28.021Z,22.55
2022-10-13T07:06:54.673Z,22.77
2022-10-13T07:09:21.336Z,20.60
2022-10-13T07:11:49.481Z,21.40
2022-10-13T07:14:16.155Z,19.52
2022-10-13T07:16:42.908Z,20.65
2022-10-13T07:19:09.592Z,20.38
2022-10-13T07:21:36.234Z,20.13
2022-10-13T07:24:04.018Z,23.80
2022-10-13T07:26:32.460Z,16.13
2022-10-13T07:28:59.321Z,20.63
2022-10-13T07:31:26.746Z,20.15
2022-10-13T07:33:53.353Z,16.25
2022-10-13T07:36:20.348Z,22.77
2022-10-13T07:38:47.198Z,17.90
2022-10-13T07:41:14.247Z,25.30
2022-10-13T07:43:41.648Z,24.95
2022-10-13T07:46:10.145Z,19.48
2022-10-13T07:48:36.829Z,21.58
2022-10-13T07:51:08.145Z,18.27
2022-10-13T07:53:35.629Z,16.45
2022-10-13T07:56:04.332Z,20.77
2022-10-13T07:58:31.096Z,23.08
2022-10-13T08:00:59.558Z,19.83
2022-10-13T08:03:27.704Z,20.15
2022-10-13T08:05:55.007Z,26.13
2022-10-13T08:08:22.265Z,19.70
2022-10-13T08:10:49.127Z,25.42
2022-10-13T08:13:15.823Z,22.35
2022-10-13T08:15:44.549Z,21.08
2022-10-13T08:18:13.392Z,21.20
2022-10-13T08:20:44.488Z,30.45
2022-10-13T08:23:12.857Z,19.52
2022-10-13T08:25:41.435Z,24.63
2022-10-13T08:28:18.849Z,21.30
2022-10-13T08:30:46.133Z,22.73
2022-10-13T08:33:13.255Z,18.25
2022-10-13T08:35:40.179Z,20.92
2022-10-13T08:38:07.667Z,21.20
2022-10-13T08:40:34.718Z,19.17
2022-10-13T08:43:06.378Z,23.40
2022-10-13T08:45:42.097Z,21.60
2022-10-13T08:48:19.216Z,18.50
2022-10-13T08:50:50.676Z,19.00
2022-10-13T08:53:38.140Z,20.30
2022-10-13T08:56:17.336Z,20.38
2022-10-13T08:58:44.215Z,17.65
2022-10-13T09:01:10.753Z,18.55
2022-10-13T09:03:55.503Z,20.30
2022-10-13T09:06:33.709Z,19.23
2022-10-13T09:09:09.540Z,16.52
2022-10-13T09:11:42.126Z,18.27
2022-10-13T09:14:11.797Z,17.67
2022-10-13T09:16:44.088Z,17.15
2022-10-13T09:19:30.142Z,17.13
2022-10-13T09:22:17.520Z,20.15
2022-10-13T09:24:44.257Z,20.88
2022-10-13T09:27:16.596Z,18.02
2022-10-13T09:29:44.635Z,17.02
2022-10-13T09:32:19.314Z,20.70
2022-10-13T09:34:47.143Z,16.35
2022-10-13T09:37:25.695Z,17.38
2022-10-13T09:40:14.269Z,17.30
2022-10-13T09:42:40.999Z,22.38
2022-10-13T09:45:23.330Z,21.17
2022-10-13T09:47:54.772Z,16.83
2022-10-13T09:50:26.424Z,15.15
2022-10-13T09:52:54.061Z,17.80
2022-10-13T09:55:33.389Z,17.63
2022-10-13T09:58:19.722Z,19.50
2022-10-13T10:00:49.741Z,13.93
2022-10-13T10:03:22.768Z,19.70
2022-10-13T10:05:56.178Z,18.75
2022-10-13T10:09:02.203Z,15.00
2022-10-13T10:11:45.440Z,16.35
2022-10-13T10:14:30.920Z,14.43
2022-10-13T10:17:28.639Z,16.33
2022-10-13T10:20:33.033Z,15.35
2022-10-13T10:23:04.393Z,14.85
2022-10-13T10:25:44.733Z,16.00
2022-10-13T10:28:36.312Z,18.02
2022-10-13T10:31:40.352Z,19.20
2022-10-13T10:34:35.584Z,24.50
2022-10-13T10:37:13.377Z,15.90
2022-10-13T10:39:57.346Z,19.05
2022-10-13T10:42:42.722Z,14.40
2022-10-13T10:45:24.867Z,17.30
2022-10-13T10:48:01.713Z,17.38
2022-10-13T10:50:30.696Z,18.05
2022-10-13T10:53:29.156Z,15.35
2022-10-13T10:56:07.182Z,18.25
2022-10-13T10:58:44.018Z,12.68
2022-10-13T11:01:33.240Z,20.55
2022-10-13T11:04:25.522Z,18.83
2022-10-13T11:06:52.234Z,16.25
2022-10-13T11:09:41.431Z,17.35
2022-10-13T11:12:20.807Z,16.42
2022-10-13T11:14:54.758Z,13.65
2022-10-13T11:17:28.481Z,17.15
2022-10-13T11:19:55.263Z,18.73
2022-10-13T11:22:31.634Z,19.65
2022-10-13T11:25:00.973Z,23.92
2022-10-13T11:27:38.986Z,19.37
2022-10-13T11:30:26.352Z,14.75
2022-10-13T11:32:55.819Z,15.85
2022-10-13T11:35:25.833Z,18.43
2022-10-13T11:38:07.458Z,25.60
2022-10-13T11:40:34.932Z,13.88
2022-10-13T11:43:32.457Z,22.25
2022-10-13T11:46:12.469Z,18.35
2022-10-13T11:48:39.009Z,16.08
2022-10-13T11:51:23.756Z,17.08
2022-10-13T11:54:12.604Z,17.02
2022-10-13T11:56:54.000Z,19.98
2022-10-13T11:59:23.975Z,16.55
2022-10-13T12:01:55.686Z,17.35
2022-10-13T12:04:25.427Z,18.98
2022-10-13T12:06:59.461Z,16.35
2022-10-13T12:09:27.475Z,17.20
2022-10-13T12:12:00.894Z,16.42
2022-10-13T12:14:35.610Z,18.02
2022-10-13T12:17:02.466Z,16.13
2022-10-13T12:19:32.496Z,20.63
2022-10-13T12:22:01.379Z,16.83
2022-10-13T12:24:30.335Z,17.27
2022-10-13T12:26:58.576Z,18.67
2022-10-13T12:29:28.863Z,19.05
2022-10-13T12:31:58.516Z,16.65
2022-10-13T12:34:32.196Z,14.70
2022-10-13T12:37:13.920Z,18.45
2022-10-13T12:39:41.144Z,22.73
2022-10-13T12:42:11.454Z,14.48
2022-10-13T12:44:38.654Z,17.48
2022-10-13T12:47:05.381Z,14.30
2022-10-13T12:49:34.492Z,16.73
2022-10-13T12:52:14.632Z,13.00
2022-10-13T12:54:54.020Z,15.43
2022-10-13T12:57:37.837Z,18.13
2022-10-13T13:00:05.959Z,15.40
2022-10-13T13:02:33.136Z,16.75
2022-10-13T13:04:59.856Z,14.32
2022-10-13T13:07:33.230Z,14.05
2022-10-13T13:10:08.777Z,15.73
2022-10-13T13:12:37.107Z,13.32
2022-10-13T13:15:25.416Z,17.83
2022-10-13T13:17:58.434Z,23.27
2022-10-13T13:20:34.798Z,18.23
2022-10-13T13:23:01.601Z,16.77
2022-10-13T13:25:28.297Z,16.00
2022-10-13T13:27:54.975Z,15.02
2022-10-13T13:30:23.866Z,17.45
2022-10-13T13:32:50.923Z,16.98
2022-10-13T13:35:17.697Z,18.60
2022-10-13T13:37:48.161Z,19.38
2022-10-13T13:40:17.846Z,16.55
2022-10-13T13:42:44.468Z,20.95
2022-10-13T13:45:15.618Z,17.90
2022-10-13T13:47:42.657Z,15.07
2022-10-13T13:50:21.110Z,18.13
2022-10-13T13:55:38.780Z,19.00
2022-10-13T13:58:05.449Z,18.95
2022-10-13T14:00:32.063Z,23.15
2022-10-13T14:02:58.736Z,23.17
2022-10-13T14:05:25.824Z,21.77
2022-10-13T14:07:57.846Z,20.30
2022-10-13T14:10:25.629Z,21.98
2022-10-13T14:12:52.599Z,17.88
2022-10-13T14:15:19.320Z,17.27
2022-10-13T14:17:45.989Z,16.33
2022-10-13T14:20:12.779Z,19.25
2022-10-13T14:22:39.775Z,14.82
2022-10-13T14:25:07.675Z,18.42
2022-10-13T14:27:35.468Z,16.05
2022-10-13T14:30:02.468Z,19.85
2022-10-13T14:32:29.178Z,20.00
2022-10-13T14:34:55.767Z,19.30
2022-10-13T14:37:23.889Z,18.35
2022-10-13T14:39:51.621Z,18.08
2022-10-13T14:42:18.279Z,17.58
2022-10-13T14:44:45.243Z,15.30
2022-10-13T14:47:12.124Z,14.88
2022-10-13T14:49:38.724Z,14.43
2022-10-13T14:52:05.452Z,12.88
2022-10-13T14:54:32.064Z,15.57
2022-10-13T14:57:01.069Z,18.50
2022-10-13T14:59:27.901Z,16.80
2022-10-13T15:01:54.492Z,20.30
2022-10-13T15:04:21.170Z,19.25
2022-10-13T15:06:47.981Z,16.08
2022-10-13T15:09:14.803Z,14.27
2022-10-13T15:11:41.514Z,19.17
2022-10-13T15:14:09.821Z,18.75
2022-10-13T15:16:37.851Z,19.20
2022-10-13T15:19:04.861Z,18.13
2022-10-13T15:21:31.523Z,18.92
2022-10-13T15:23:58.158Z,21.55
2022-10-13T15:26:24.819Z,15.23
2022-10-13T15:28:52.968Z,19.80
2022-10-13T15:31:22.377Z,13.73
2022-10-13T15:33:51.802Z,13.33
2022-10-13T15:36:20.107Z,18.00
2022-10-13T15:38:46.874Z,16.75
2022-10-13T15:41:13.571Z,13.60
2022-10-13T15:43:40.315Z,17.83
2022-10-13T15:46:21.587Z,17.23
2022-10-13T15:48:54.365Z,23.30
2022-10-13T15:51:24.509Z,17.75
2022-10-13T15:53:51.223Z,15.75
2022-10-13T15:56:17.990Z,16.25
2022-10-13T15:58:45.487Z,21.30
2022-10-13T16:01:13.359Z,12.55
2022-10-13T16:03:40.619Z,17.67
2022-10-13T16:06:09.525Z,16.17
2022-10-13T16:08:40.603Z,22.80
2022-10-13T16:11:08.675Z,15.57
2022-10-13T16:13:35.316Z,21.00
2022-10-13T16:16:02.115Z,24.83
2022-10-13T16:18:30.522Z,22.23
2022-10-13T16:20:58.571Z,17.27
2022-10-13T16:23:25.502Z,22.98
2022-10-13T16:25:52.134Z,24.80
2022-10-13T16:28:18.863Z,33.47
2022-10-13T16:30:45.454Z,25.60
2022-10-13T16:33:12.096Z,23.48
2022-10-13T16:35:38.777Z,23.38
2022-10-13T16:38:05.581Z,18.38
2022-10-13T16:40:32.473Z,20.27
2022-10-13T16:42:59.056Z,28.88
2022-10-13T16:45:41.306Z,20.52
2022-10-13T16:48:13.003Z,23.85
2022-10-13T16:50:39.624Z,27.92
2022-10-13T16:53:06.230Z,25.83
2022-10-13T16:55:32.800Z,26.27
2022-10-13T16:57:59.405Z,24.45
2022-10-13T17:00:26.043Z,32.00
2022-10-13T17:02:52.703Z,19.42
2022-10-13T17:05:19.336Z,22.30
2022-10-13T17:07:45.900Z,19.52
2022-10-13T17:10:12.533Z,22.85
2022-10-13T17:12:39.214Z,22.83
2022-10-13T17:15:06.147Z,28.35
2022-10-13T17:17:33.049Z,26.23
2022-10-13T17:19:59.664Z,22.15
2022-10-13T17:22:26.411Z,24.20
2022-10-13T17:24:53.025Z,21.42
2022-10-13T17:27:19.913Z,22.33
2022-10-13T17:29:46.922Z,23.27
2022-10-13T17:32:13.789Z,23.33
2022-10-13T17:34:40.569Z,26.30
2022-10-13T17:37:07.258Z,22.20
2022-10-13T17:39:33.907Z,18.50
2022-10-13T17:42:00.511Z,19.05
2022-10-13T17:44:27.172Z,24.63
2022-10-13T17:46:53.815Z,22.70
2022-10-13T17:49:20.559Z,22.20
2022-10-13T17:51:51.273Z,22.15
2022-10-13T17:54:19.433Z,23.67
2022-10-13T17:56:47.557Z,23.85
2022-10-13T17:59:16.313Z,22.60
2022-10-13T18:01:43.469Z,23.90
2022-10-13T18:04:12.609Z,26.10
2022-10-13T18:06:41.172Z,25.03
2022-10-13T18:09:10.809Z,29.88
2022-10-13T18:11:38.047Z,29.17
2022-10-13T18:14:05.338Z,24.50
2022-10-13T18:16:32.465Z,23.67
2022-10-13T18:18:59.160Z,28.38
2022-10-13T18:21:29.278Z,26.58
2022-10-13T18:23:58.354Z,26.15
2022-10-13T18:26:26.187Z,24.48
2022-10-13T18:28:53.252Z,31.15
2022-10-13T18:31:24.033Z,27.83
2022-10-13T18:33:51.898Z,24.65
2022-10-13T18:36:23.510Z,27.02
2022-10-13T18:38:56.583Z,25.58
2022-10-13T18:41:24.519Z,26.70
2022-10-13T18:43:51.605Z,28.13
2022-10-13T18:46:19.092Z,28.65
2022-10-13T18:48:46.004Z,21.67
2022-10-13T18:51:15.339Z,26.23
2022-10-13T18:53:43.413Z,19.40
2022-10-13T18:56:13.387Z,23.10
2022-10-13T18:58:40.605Z,25.02
2022-10-13T19:01:13.412Z,19.70
2022-10-13T19:03:41.280Z,23.88
2022-10-13T19:06:09.944Z,24.13
2022-10-13T19:08:36.921Z,21.95
2022-10-13T19:11:21.366Z,21.85
2022-10-13T19:13:49.208Z,25.48
2022-10-13T19:16:18.523Z,21.70
2022-10-13T19:18:45.758Z,25.83
2022-10-13T19:21:12.580Z,25.67
2022-10-13T19:23:40.166Z,22.48
2022-10-13T19:26:13.940Z,27.60
2022-10-13T19:28:41.963Z,26.05
2022-10-13T19:31:10.756Z,32.25
2022-10-13T19:33:43.478Z,26.30
2022-10-13T19:36:19.645Z,28.35
2022-10-13T19:38:46.302Z,24.42
2022-10-13T19:41:12.881Z,27.85
2022-10-13T19:43:39.508Z,26.17
2022-10-13T19:46:07.425Z,27.80
2022-10-13T19:48:34.165Z,25.15
2022-10-13T19:51:01.964Z,26.75
2022-10-13T19:53:28.610Z,29.08
2022-10-13T19:55:55.305Z,27.83
2022-10-13T19:58:22.076Z,32.33
2022-10-13T20:00:49.768Z,29.88
2022-10-13T20:03:16.824Z,30.85
2022-10-13T20:05:43.845Z,29.20
2022-10-13T20:08:11.878Z,26.80
2022-10-13T20:10:42.972Z,31.33
2022-10-13T20:13:10.571Z,26.02
2022-10-13T20:15:42.827Z,28.30
2022-10-13T20:18:12.801Z,27.33
2022-10-13T20:20:41.327Z,27.17
2022-10-13T20:23:09.419Z,32.60
2022-10-13T20:25:37.886Z,29.23
2022-10-13T20:28:05.750Z,29.65
2022-10-13T20:30:32.663Z,30.13
2022-10-13T20:32:59.462Z,32.28
2022-10-13T20:35:26.288Z,27.20
2022-10-13T20:37:52.934Z,27.33
2022-10-13T20:40:19.577Z,27.35
2022-10-13T20:42:51.411Z,31.17
2022-10-13T20:45:18.805Z,27.45
2022-10-13T20:47:46.822Z,26.70
2022-10-13T20:50:13.765Z,26.85
2022-10-13T20:52:40.396Z,25.25
2022-10-13T20:55:07.216Z,28.38
2022-10-13T20:57:33.817Z,31.85
2022-10-13T21:00:00.441Z,26.27
2022-10-13T21:02:27.053Z,30.00
2022-10-13T21:04:53.683Z,28.55
2022-10-13T21:07:20.675Z,25.15
2022-10-13T21:09:52.781Z,29.23
2022-10-13T21:12:20.517Z,33.88
2022-10-13T21:14:47.152Z,29.50
2022-10-13T21:17:13.751Z,34.88
2022-10-13T21:19:40.341Z,33.15
2022-10-13T21:22:06.964Z,33.70
2022-10-13T21:24:33.772Z,32.22
2022-10-13T21:27:00.384Z,34.10
2022-10-13T21:29:27.090Z,33.33
2022-10-13T21:31:53.724Z,30.38
2022-10-13T21:34:20.441Z,31.63
2022-10-13T21:36:47.063Z,33.00
2022-10-13T21:39:14.083Z,30.55
2022-10-13T21:41:40.842Z,27.60
2022-10-13T21:44:07.536Z,29.77
2022-10-13T21:46:34.940Z,30.00
2022-10-13T21:49:03.976Z,34.58
2022-10-13T21:51:33.587Z,32.03
2022-10-13T21:54:03.666Z,33.45
2022-10-13T21:56:31.836Z,31.35
2022-10-13T21:58:58.436Z,31.25
2022-10-13T22:01:25.452Z,33.38
2022-10-13T22:03:57.536Z,28.13
2022-10-13T22:06:24.632Z,29.48
2022-10-13T22:08:53.260Z,25.45
2022-10-13T22:11:21.041Z,30.05
2022-10-13T22:13:47.746Z,32.00
2022-10-13T22:16:19.998Z,23.80
2022-10-13T22:18:46.966Z,26.80
2022-10-13T22:21:19.861Z,28.80
2022-10-13T22:23:46.774Z,24.25
2022-10-13T22:26:17.697Z,26.88
2022-10-13T22:28:44.461Z,24.38
2022-10-13T22:31:13.053Z,25.20
2022-10-13T22:33:41.857Z,23.35
2022-10-13T22:36:17.629Z,23.13
2022-10-13T22:38:45.791Z,27.58
2022-10-13T22:41:14.599Z,22.23
2022-10-13T22:43:44.155Z,21.67
2022-10-13T22:46:15.744Z,28.02
2022-10-13T22:48:42.734Z,25.60
2022-10-13T22:51:10.792Z,21.00
2022-10-13T22:53:37.751Z,26.65
2022-10-13T22:56:13.857Z,25.70
2022-10-13T22:58:40.547Z,28.13
2022-10-13T23:01:09.468Z,31.17
2022-10-13T23:03:37.076Z,30.45
2022-10-13T23:06:04.457Z,29.02
2022-10-13T23:08:31.520Z,29.00
2022-10-13T23:10:58.455Z,29.77
2022-10-13T23:13:25.609Z,25.38
2022-10-13T23:15:52.291Z,24.95
2022-10-13T23:18:18.926Z,26.85
2022-10-13T23:20:45.505Z,25.30
2022-10-13T23:23:12.234Z,29.50
2022-10-13T23:25:38.889Z,33.25
2022-10-13T23:28:05.545Z,25.27
2022-10-13T23:30:32.230Z,26.50
2022-10-13T23:32:58.831Z,24.08
2022-10-13T23:35:26.055Z,25.58
2022-10-13T23:37:52.957Z,32.15
2022-10-13T23:40:19.862Z,25.65
2022-10-13T23:42:46.563Z,25.13
2022-10-13T23:45:13.252Z,29.20
2022-10-13T23:47:39.911Z,28.48
2022-10-13T23:50:06.961Z,23.52
2022-10-13T23:52:33.601Z,28.13
2022-10-13T23:55:00.289Z,27.05
2022-10-13T23:57:28.779Z,24.45
2022-10-13T23:59:55.477Z,25.55
